Time;durP1;ratioP1;P1;durP2;ratioP2;P2;SDS_P1;SDS_P2;PMS_P1;PMS_P2;Temp;Humidity;BMP_temperature;BMP_pressure;BME280_temperature;BME280_humidity;BME280_pressure;Samples;Min_cycle;Max_cycle;Signal;HPM_P1;HPM_P2
2024/02/23 00:01:53;;;;;;;1.52;0.50;;;;;;;;;;4962307;28;20030;-81
2024/02/23 00:04:23;;;;;;;2.45;0.60;;;;;;;;;;4971131;28;20468;-81
2024/02/23 00:06:51;;;;;;;1.63;0.68;;;;;;;;;;4971945;28;20027;-81
2024/02/23 00:09:19;;;;;;;2.58;1.00;;;;;;;;;;4973562;28;20170;-80
2024/02/23 00:11:49;;;;;;;6.47;1.10;;;;;;;;;;4973381;28;20026;-81
2024/02/23 00:14:18;;;;;;;3.42;0.85;;;;;;;;;;4965783;28;20027;-81
2024/02/23 00:16:46;;;;;;;3.75;0.90;;;;;;;;;;4967497;28;20042;-81
2024/02/23 00:19:22;;;;;;;4.07;1.00;;;;;;;;;;4967772;28;20023;-81
2024/02/23 00:21:52;;;;;;;2.75;0.90;;;;;;;;;;4954950;28;20093;-81
2024/02/23 00:24:29;;;;;;;3.75;1.20;;;;;;;;;;4968838;28;20034;-81
2024/02/23 00:26:59;;;;;;;5.47;1.42;;;;;;;;;;4971610;28;20035;-81
2024/02/23 00:29:25;;;;;;;3.95;1.42;;;;;;;;;;4971227;28;20027;-81
2024/02/23 00:31:55;;;;;;;4.85;1.40;;;;;;;;;;4969811;28;22015;-81
2024/02/23 00:34:33;;;;;;;4.03;1.50;;;;;;;;;;4974185;28;20039;-80
2024/02/23 00:37:03;;;;;;;5.25;2.45;;;;;;;;;;4968083;28;20030;-81
2024/02/23 00:39:31;;;;;;;5.60;1.90;;;;;;;;;;4973441;28;20058;-80
2024/02/23 00:42:01;;;;;;;6.95;2.20;;;;;;;;;;4966746;28;20031;-81
2024/02/23 00:44:31;;;;;;;6.07;2.42;;;;;;;;;;4971970;28;20062;-81
2024/02/23 00:47:01;;;;;;;6.05;2.88;;;;;;;;;;4968568;28;20035;-81
2024/02/23 00:49:30;;;;;;;5.20;2.28;;;;;;;;;;4950880;28;20514;-81
2024/02/23 00:52:01;;;;;;;5.57;2.40;;;;;;;;;;4970213;28;20027;-81
2024/02/23 00:54:29;;;;;;;5.85;2.35;;;;;;;;;;4963687;28;20042;-81
2024/02/23 00:56:57;;;;;;;4.72;2.20;;;;;;;;;;4963677;28;20023;-81
2024/02/23 00:59:22;;;;;;;3.60;2.00;;;;;;;;;;4952543;28;20030;-81
2024/02/23 01:01:55;;;;;;;4.22;1.98;;;;;;;;;;4951891;28;20378;-81
2024/02/23 01:04:23;;;;;;;5.05;2.03;;;;;;;;;;4970416;28;20025;-81
2024/02/23 01:06:56;;;;;;;4.63;1.80;;;;;;;;;;4966876;28;20081;-81
2024/02/23 01:09:24;;;;;;;4.70;1.70;;;;;;;;;;4962886;28;20031;-81
2024/02/23 01:11:54;;;;;;;5.05;1.65;;;;;;;;;;4967139;28;20038;-81
2024/02/23 01:14:24;;;;;;;5.15;1.40;;;;;;;;;;4963882;28;20026;-81
2024/02/23 01:17:10;;;;;;;6.40;1.48;;;;;;;;;;4970456;28;20054;-80
2024/02/23 01:19:40;;;;;;;4.22;1.20;;;;;;;;;;4968659;28;20135;-81
2024/02/23 01:22:10;;;;;;;3.40;1.25;;;;;;;;;;4955419;28;20022;-81
2024/02/23 01:24:38;;;;;;;4.25;1.15;;;;;;;;;;4959221;28;20073;-81
2024/02/23 01:27:08;;;;;;;3.47;1.00;;;;;;;;;;4969123;28;20022;-80
2024/02/23 01:29:34;;;;;;;3.50;1.17;;;;;;;;;;4968657;28;20042;-81
2024/02/23 01:32:02;;;;;;;5.55;1.10;;;;;;;;;;4972399;28;20030;-81
2024/02/23 01:34:38;;;;;;;3.97;0.88;;;;;;;;;;4962117;28;20031;-80
2024/02/23 01:37:11;;;;;;;9.02;1.00;;;;;;;;;;4970539;28;20031;-81
2024/02/23 01:39:42;;;;;;;4.20;0.90;;;;;;;;;;4956503;28;20027;-81
2024/02/23 01:42:11;;;;;;;2.28;0.82;;;;;;;;;;4966080;28;20520;-81
2024/02/23 01:44:38;;;;;;;5.53;1.13;;;;;;;;;;4947456;29;20062;-81
2024/02/23 01:47:14;;;;;;;2.50;0.68;;;;;;;;;;4968539;28;20042;-81
2024/02/23 01:49:40;;;;;;;2.85;0.80;;;;;;;;;;4964009;28;20065;-81
2024/02/23 01:52:16;;;;;;;4.05;1.08;;;;;;;;;;4951121;28;20646;-81
2024/02/23 01:54:44;;;;;;;3.17;0.73;;;;;;;;;;4952007;28;20477;-81
2024/02/23 01:57:13;;;;;;;2.53;0.77;;;;;;;;;;4967146;28;20469;-81
2024/02/23 01:59:41;;;;;;;1.88;0.70;;;;;;;;;;4953204;28;20092;-81
2024/02/23 02:02:10;;;;;;;6.65;1.23;;;;;;;;;;4952075;28;20113;-81
2024/02/23 02:04:35;;;;;;;5.78;0.70;;;;;;;;;;5011170;23;20042;-81
2024/02/23 02:07:01;;;;;;;3.00;0.80;;;;;;;;;;5007123;28;20037;-82
2024/02/23 02:09:27;;;;;;;4.25;0.75;;;;;;;;;;5010950;28;20048;-82
2024/02/23 02:11:52;;;;;;;4.43;0.60;;;;;;;;;;5008953;28;20484;-81
2024/02/23 02:14:18;;;;;;;3.88;0.60;;;;;;;;;;5006115;28;20029;-82
2024/02/23 02:16:44;;;;;;;4.93;0.80;;;;;;;;;;5003041;28;20040;-82
2024/02/23 02:19:10;;;;;;;4.03;1.05;;;;;;;;;;5012219;28;20030;-81
2024/02/23 02:21:36;;;;;;;2.35;0.70;;;;;;;;;;5006431;28;20058;-81
2024/02/23 02:24:02;;;;;;;3.92;0.93;;;;;;;;;;4999848;28;20443;-82
2024/02/23 02:26:28;;;;;;;6.50;1.10;;;;;;;;;;5010277;28;20030;-82
2024/02/23 02:28:53;;;;;;;2.83;0.75;;;;;;;;;;5007349;28;20514;-81
2024/02/23 02:31:19;;;;;;;3.35;0.77;;;;;;;;;;5005419;28;20029;-80
2024/02/23 02:33:44;;;;;;;3.88;1.00;;;;;;;;;;5005428;28;20033;-80
2024/02/23 02:36:11;;;;;;;2.92;0.90;;;;;;;;;;5000756;28;20042;-81
2024/02/23 02:38:37;;;;;;;2.10;0.80;;;;;;;;;;5009519;28;20036;-81
2024/02/23 02:41:02;;;;;;;3.90;0.80;;;;;;;;;;5010285;28;20025;-81
2024/02/23 02:43:27;;;;;;;3.08;0.80;;;;;;;;;;4991489;28;20028;-81
2024/02/23 02:45:53;;;;;;;4.32;0.93;;;;;;;;;;5009361;28;20032;-81
2024/02/23 02:48:18;;;;;;;2.40;0.93;;;;;;;;;;5005030;28;20389;-81
2024/02/23 02:50:44;;;;;;;3.97;0.98;;;;;;;;;;4988539;28;20075;-81
2024/02/23 02:53:10;;;;;;;2.50;0.70;;;;;;;;;;4987896;28;20084;-81
2024/02/23 02:55:44;;;;;;;4.90;0.93;;;;;;;;;;4972887;28;20030;-81
2024/02/23 02:58:13;;;;;;;3.35;0.80;;;;;;;;;;4982611;28;20112;-81
2024/02/23 03:00:39;;;;;;;10.55;2.10;;;;;;;;;;4979887;28;20082;-81
2024/02/23 03:03:04;;;;;;;4.72;0.73;;;;;;;;;;4983198;28;20022;-81
2024/02/23 03:05:30;;;;;;;3.17;0.73;;;;;;;;;;4985456;28;20034;-81
2024/02/23 03:07:55;;;;;;;5.50;1.08;;;;;;;;;;4972468;28;20113;-81
2024/02/23 03:10:21;;;;;;;3.85;0.80;;;;;;;;;;4968898;28;20030;-81
2024/02/23 03:12:46;;;;;;;3.70;0.90;;;;;;;;;;4991669;28;20115;-81
2024/02/23 03:15:12;;;;;;;3.88;0.85;;;;;;;;;;4987584;28;20037;-81
2024/02/23 03:17:37;;;;;;;4.10;0.90;;;;;;;;;;4980901;28;20027;-81
2024/02/23 03:20:08;;;;;;;4.43;1.33;;;;;;;;;;4986530;28;20026;-81
2024/02/23 03:22:33;;;;;;;4.10;1.00;;;;;;;;;;4986858;28;20353;-80
2024/02/23 03:24:59;;;;;;;1.95;0.82;;;;;;;;;;4977075;28;20165;-81
2024/02/23 03:27:32;;;;;;;5.13;1.25;;;;;;;;;;4988640;28;20045;-81
2024/02/23 03:30:05;;;;;;;4.35;1.15;;;;;;;;;;4987432;28;20109;-81
2024/02/23 03:32:36;;;;;;;3.90;1.05;;;;;;;;;;4986852;28;20025;-81
2024/02/23 03:35:11;;;;;;;4.57;0.95;;;;;;;;;;4969240;28;20026;-81
2024/02/23 03:41:33;;;;;;;;;;;;;;;;;;;;;
2024/02/23 03:44:01;;;;;;;5.65;0.98;;;;;;;;;;4977458;28;20034;-81
2024/02/23 03:53:40;;;;;;;4.28;1.05;;;;;;;;;;4961339;28;20064;-81
2024/02/23 03:59:10;;;;;;;;;;;;;;;;;;;;;
2024/02/23 04:01:54;;;;;;;3.72;1.05;;;;;;;;;;4989711;28;20385;-81
2024/02/23 04:08:38;;;;;;;;;;;;;;;;;;;;;
2024/02/23 04:14:43;;;;;;;;;;;;;;;;;;;;;
2024/02/23 04:21:38;;;;;;;4.50;0.95;;;;;;;;;;4987614;28;20042;-80
2024/02/23 04:24:06;;;;;;;5.80;1.13;;;;;;;;;;4973611;28;20441;-81
2024/02/23 04:26:51;;;;;;;;;;;;;;;;;;;;;
2024/02/23 04:29:20;;;;;;;2.90;0.90;;;;;;;;;;4987299;28;20023;-81
2024/02/23 04:32:08;;;;;;;3.47;1.08;;;;;;;;;;4975931;28;20049;-81
2024/02/23 04:38:23;;;;;;;4.75;1.23;;;;;;;;;;4954035;28;20037;-81
2024/02/23 04:41:35;;;;;;;;;;;;;;;;;;;;;
2024/02/23 04:44:30;;;;;;;;;;;;;;;;;;;;;
2024/02/23 04:53:48;;;;;;;6.28;1.13;;;;;;;;;;4973102;28;20093;-81
2024/02/23 04:56:14;;;;;;;5.20;1.20;;;;;;;;;;4976662;28;20125;-81
2024/02/23 04:58:41;;;;;;;3.83;1.10;;;;;;;;;;4993937;28;20042;-81
2024/02/23 05:01:06;;;;;;;4.55;1.08;;;;;;;;;;4993720;28;20089;-81
2024/02/23 05:03:32;;;;;;;5.47;1.30;;;;;;;;;;4993428;28;20061;-81
2024/02/23 05:05:58;;;;;;;5.50;1.10;;;;;;;;;;4990978;28;20033;-81
2024/02/23 05:08:24;;;;;;;3.20;1.20;;;;;;;;;;4974585;28;20029;-81
2024/02/23 05:10:50;;;;;;;4.53;1.38;;;;;;;;;;4981724;28;20483;-81
2024/02/23 05:13:16;;;;;;;4.60;1.15;;;;;;;;;;4989309;28;20033;-81
2024/02/23 05:15:41;;;;;;;4.85;1.08;;;;;;;;;;4988064;28;20027;-81
2024/02/23 05:18:07;;;;;;;3.17;1.13;;;;;;;;;;4974738;28;20121;-81
2024/02/23 05:20:32;;;;;;;2.63;0.75;;;;;;;;;;4981824;28;20110;-81
2024/02/23 05:22:58;;;;;;;4.10;1.00;;;;;;;;;;4977472;28;20121;-81
2024/02/23 05:25:25;;;;;;;3.70;1.00;;;;;;;;;;4990412;28;20061;-81
2024/02/23 05:27:51;;;;;;;3.08;1.20;;;;;;;;;;4979500;28;20034;-81
2024/02/23 05:30:16;;;;;;;6.32;1.10;;;;;;;;;;4975603;28;20030;-81
2024/02/23 05:32:42;;;;;;;7.63;1.40;;;;;;;;;;4991431;28;20046;-81
2024/02/23 05:35:08;;;;;;;5.20;1.33;;;;;;;;;;4990432;28;20029;-81
2024/02/23 05:37:34;;;;;;;7.70;1.50;;;;;;;;;;4992020;28;20023;-81
2024/02/23 05:40:00;;;;;;;3.78;1.30;;;;;;;;;;4988322;28;20420;-80
2024/02/23 05:42:26;;;;;;;5.45;1.40;;;;;;;;;;4993937;28;20033;-81
2024/02/23 05:44:51;;;;;;;2.25;0.77;;;;;;;;;;4993426;28;20113;-81
2024/02/23 05:47:17;;;;;;;8.85;1.50;;;;;;;;;;4983830;28;20403;-78
2024/02/23 05:49:42;;;;;;;5.93;1.40;;;;;;;;;;4991799;28;20034;-79
2024/02/23 05:52:09;;;;;;;5.45;1.50;;;;;;;;;;4984743;28;20037;-79
2024/02/23 05:54:34;;;;;;;6.40;1.48;;;;;;;;;;4985060;28;20034;-78
2024/02/23 05:57:00;;;;;;;5.70;1.40;;;;;;;;;;4967451;28;20053;-78
2024/02/23 05:59:27;;;;;;;4.78;1.10;;;;;;;;;;4967284;28;20065;-78
2024/02/23 06:01:56;;;;;;;5.05;1.38;;;;;;;;;;4988507;28;20497;-79
2024/02/23 06:04:22;;;;;;;5.28;1.40;;;;;;;;;;4984669;28;20263;-79
2024/02/23 06:06:47;;;;;;;8.05;1.80;;;;;;;;;;4968791;28;20031;-81
2024/02/23 06:09:13;;;;;;;4.25;1.40;;;;;;;;;;4980082;28;20030;-81
2024/02/23 06:11:38;;;;;;;6.13;1.35;;;;;;;;;;4989261;28;20037;-81
2024/02/23 06:14:03;;;;;;;5.68;1.27;;;;;;;;;;4988522;28;20554;-80
2024/02/23 06:16:29;;;;;;;3.55;1.05;;;;;;;;;;4990077;28;20037;-81
2024/02/23 06:18:54;;;;;;;6.38;1.42;;;;;;;;;;4969349;28;20526;-81
2024/02/23 06:21:20;;;;;;;4.18;1.40;;;;;;;;;;4972852;28;20026;-81
2024/02/23 06:23:45;;;;;;;6.00;1.50;;;;;;;;;;4975276;28;20027;-81
2024/02/23 06:26:11;;;;;;;5.28;1.30;;;;;;;;;;4968741;28;20026;-82
2024/02/23 06:28:38;;;;;;;5.10;1.15;;;;;;;;;;4970305;28;20424;-82
2024/02/23 06:31:05;;;;;;;6.03;1.10;;;;;;;;;;4966119;28;20022;-81
2024/02/23 06:33:31;;;;;;;5.40;1.10;;;;;;;;;;4992261;28;20026;-81
2024/02/23 06:35:56;;;;;;;6.22;1.40;;;;;;;;;;4984918;28;20056;-81
2024/02/23 06:38:22;;;;;;;4.90;1.63;;;;;;;;;;4988622;28;20026;-82
2024/02/23 06:40:47;;;;;;;5.15;1.20;;;;;;;;;;4984897;28;20030;-81
2024/02/23 06:43:13;;;;;;;3.65;1.20;;;;;;;;;;4974596;28;20019;-81
2024/02/23 06:45:38;;;;;;;3.38;1.25;;;;;;;;;;4965231;28;20037;-81
2024/02/23 06:48:04;;;;;;;3.80;1.00;;;;;;;;;;4973880;28;20027;-80
2024/02/23 06:50:32;;;;;;;3.30;1.08;;;;;;;;;;4979195;28;20030;-81
2024/02/23 06:52:58;;;;;;;6.15;1.20;;;;;;;;;;4989978;28;20445;-81
2024/02/23 06:55:23;;;;;;;6.72;1.35;;;;;;;;;;4970075;28;20058;-81
2024/02/23 06:57:49;;;;;;;5.68;1.35;;;;;;;;;;4988045;28;20444;-81
2024/02/23 07:00:15;;;;;;;3.88;1.02;;;;;;;;;;4971569;28;20045;-81
2024/02/23 07:02:40;;;;;;;4.25;0.98;;;;;;;;;;4987263;28;20034;-81
2024/02/23 07:05:06;;;;;;;5.80;1.13;;;;;;;;;;4995936;28;20022;-81
2024/02/23 07:07:34;;;;;;;2.92;0.95;;;;;;;;;;4983585;28;20034;-81
2024/02/23 07:10:00;;;;;;;4.70;0.90;;;;;;;;;;4990809;28;20026;-81
2024/02/23 07:12:27;;;;;;;7.63;1.20;;;;;;;;;;4968459;28;20046;-81
2024/02/23 07:14:53;;;;;;;3.30;0.82;;;;;;;;;;4986399;28;20049;-81
2024/02/23 07:17:19;;;;;;;3.83;1.08;;;;;;;;;;4990750;28;20062;-81
2024/02/23 07:19:45;;;;;;;3.47;0.98;;;;;;;;;;4980237;28;20030;-81
2024/02/23 07:22:10;;;;;;;3.28;0.80;;;;;;;;;;4968220;28;20042;-81
2024/02/23 07:24:40;;;;;;;3.00;0.90;;;;;;;;;;4988030;28;20024;-81
2024/02/23 07:27:05;;;;;;;5.13;1.13;;;;;;;;;;4984416;28;20026;-81
2024/02/23 07:29:31;;;;;;;3.13;1.10;;;;;;;;;;4981689;28;20026;-82
2024/02/23 07:31:56;;;;;;;3.03;0.90;;;;;;;;;;4979153;28;20026;-82
2024/02/23 07:34:22;;;;;;;5.38;1.10;;;;;;;;;;4985658;28;20582;-82
2024/02/23 07:36:51;;;;;;;4.78;0.80;;;;;;;;;;4988744;28;20022;-82
2024/02/23 07:39:16;;;;;;;4.15;1.02;;;;;;;;;;4991807;28;20031;-82
2024/02/23 07:41:42;;;;;;;4.80;1.00;;;;;;;;;;4964697;28;20033;-82
2024/02/23 07:44:07;;;;;;;5.93;1.05;;;;;;;;;;4982472;28;20392;-82
2024/02/23 07:46:32;;;;;;;3.88;0.88;;;;;;;;;;4982798;28;20027;-82
2024/02/23 07:48:58;;;;;;;4.78;0.95;;;;;;;;;;4986566;28;20041;-81
2024/02/23 07:51:23;;;;;;;4.35;1.02;;;;;;;;;;4984587;28;20032;-82
2024/02/23 07:53:49;;;;;;;3.25;0.93;;;;;;;;;;4985997;28;20038;-82
2024/02/23 07:56:14;;;;;;;3.80;0.90;;;;;;;;;;4984886;28;20469;-82
2024/02/23 07:58:40;;;;;;;6.28;1.10;;;;;;;;;;4968662;28;20436;-82
2024/02/23 08:01:05;;;;;;;5.63;1.00;;;;;;;;;;4970721;28;20026;-82
2024/02/23 08:03:31;;;;;;;4.15;1.00;;;;;;;;;;4978759;28;20416;-82
2024/02/23 08:05:57;;;;;;;6.28;1.13;;;;;;;;;;4970766;28;20027;-82
2024/02/23 08:08:23;;;;;;;6.63;1.05;;;;;;;;;;4989014;28;20032;-82
2024/02/23 08:10:49;;;;;;;5.03;0.98;;;;;;;;;;4986633;28;20026;-82
2024/02/23 08:13:15;;;;;;;4.55;0.90;;;;;;;;;;4976537;28;20124;-82
2024/02/23 08:15:40;;;;;;;4.15;0.82;;;;;;;;;;4981126;28;20113;-81
2024/02/23 08:18:06;;;;;;;3.92;0.90;;;;;;;;;;4971126;28;20076;-82
2024/02/23 08:20:31;;;;;;;4.65;0.85;;;;;;;;;;4976896;28;20026;-82
2024/02/23 08:22:56;;;;;;;5.57;1.05;;;;;;;;;;4973768;28;20392;-81
2024/02/23 08:25:22;;;;;;;4.40;1.08;;;;;;;;;;4991790;28;20014;-81
2024/02/23 08:27:48;;;;;;;4.68;0.98;;;;;;;;;;4986958;28;20029;-82
2024/02/23 08:30:14;;;;;;;6.97;1.10;;;;;;;;;;4993401;28;20026;-82
2024/02/23 08:32:40;;;;;;;5.03;1.00;;;;;;;;;;4992714;28;20092;-82
2024/02/23 08:35:06;;;;;;;5.18;1.10;;;;;;;;;;4975912;28;20034;-82
2024/02/23 08:37:32;;;;;;;6.78;1.10;;;;;;;;;;4987445;28;20026;-82
2024/02/23 08:39:57;;;;;;;6.60;1.00;;;;;;;;;;4992899;28;20034;-81
2024/02/23 08:42:23;;;;;;;6.07;1.08;;;;;;;;;;4978493;28;20053;-82
2024/02/23 08:44:48;;;;;;;2.72;0.90;;;;;;;;;;4980230;28;20029;-82
2024/02/23 08:47:14;;;;;;;5.35;1.10;;;;;;;;;;4995011;28;20036;-82
2024/02/23 08:49:39;;;;;;;8.90;1.52;;;;;;;;;;4982952;28;20026;-82
2024/02/23 08:52:05;;;;;;;5.20;1.05;;;;;;;;;;4990200;28;20030;-81
2024/02/23 08:54:30;;;;;;;5.35;1.17;;;;;;;;;;4986222;28;20026;-82
2024/02/23 08:56:55;;;;;;;5.45;0.80;;;;;;;;;;4975382;28;20081;-82
2024/02/23 08:59:21;;;;;;;5.18;1.00;;;;;;;;;;4977712;28;20428;-81
2024/02/23 09:01:46;;;;;;;3.65;1.00;;;;;;;;;;4990162;28;20476;-82
2024/02/23 09:04:13;;;;;;;6.55;1.25;;;;;;;;;;4986745;28;20547;-82
2024/02/23 09:06:38;;;;;;;3.58;0.95;;;;;;;;;;4973983;28;20511;-82
2024/02/23 09:09:04;;;;;;;8.10;1.70;;;;;;;;;;4969452;28;20042;-82
2024/02/23 09:11:29;;;;;;;10.18;1.10;;;;;;;;;;4978753;28;20038;-81
2024/02/23 09:13:55;;;;;;;4.60;1.08;;;;;;;;;;4988533;28;20030;-82
2024/02/23 09:16:23;;;;;;;11.38;1.50;;;;;;;;;;4972500;28;20031;-82
2024/02/23 09:18:48;;;;;;;7.45;0.90;;;;;;;;;;4986223;28;20026;-81
2024/02/23 09:21:14;;;;;;;3.55;0.93;;;;;;;;;;4969383;28;20581;-83
2024/02/23 09:23:39;;;;;;;6.05;1.40;;;;;;;;;;4980186;28;20026;-81
2024/02/23 09:26:11;;;;;;;2.95;1.00;;;;;;;;;;4971436;28;20018;-82
2024/02/23 09:28:36;;;;;;;4.95;1.10;;;;;;;;;;4987286;28;20060;-80
2024/02/23 09:31:03;;;;;;;5.68;0.95;;;;;;;;;;4990116;28;20050;-81
2024/02/23 09:33:28;;;;;;;3.75;0.90;;;;;;;;;;4996551;28;20037;-81
2024/02/23 09:35:54;;;;;;;4.00;1.27;;;;;;;;;;4988537;28;20488;-81
2024/02/23 09:38:19;;;;;;;3.67;0.80;;;;;;;;;;4985193;28;20081;-81
2024/02/23 09:40:46;;;;;;;4.28;0.90;;;;;;;;;;4981598;28;20022;-80
2024/02/23 09:43:12;;;;;;;3.75;1.02;;;;;;;;;;4992322;28;20033;-81
2024/02/23 09:45:38;;;;;;;5.88;1.25;;;;;;;;;;4971463;28;20023;-81
2024/02/23 09:48:04;;;;;;;3.63;0.98;;;;;;;;;;4974389;28;20021;-80
2024/02/23 09:50:30;;;;;;;3.90;1.00;;;;;;;;;;4988554;28;20030;-80
2024/02/23 09:52:58;;;;;;;3.35;1.10;;;;;;;;;;4986113;28;20454;-80
2024/02/23 09:55:23;;;;;;;6.60;1.48;;;;;;;;;;4989136;28;20112;-80
2024/02/23 09:57:54;;;;;;;4.63;1.00;;;;;;;;;;4992290;28;20050;-80
2024/02/23 10:00:20;;;;;;;5.00;1.00;;;;;;;;;;4971944;28;20096;-79
2024/02/23 10:02:46;;;;;;;2.72;0.90;;;;;;;;;;4991974;28;20476;-80
2024/02/23 10:05:14;;;;;;;5.28;1.13;;;;;;;;;;4976940;28;20022;-79
2024/02/23 10:07:40;;;;;;;5.25;0.88;;;;;;;;;;4971393;28;20030;-79
2024/02/23 10:10:10;;;;;;;4.60;0.90;;;;;;;;;;4989059;28;20023;-79
2024/02/23 10:12:36;;;;;;;5.57;1.20;;;;;;;;;;4975117;28;20068;-80
2024/02/23 10:15:04;;;;;;;3.25;0.85;;;;;;;;;;4986743;28;20494;-80
2024/02/23 10:17:30;;;;;;;4.22;0.90;;;;;;;;;;4990423;28;20030;-79
2024/02/23 10:19:57;;;;;;;2.88;0.75;;;;;;;;;;4986970;28;20033;-80
2024/02/23 10:22:24;;;;;;;4.43;0.85;;;;;;;;;;4989477;28;20388;-80
2024/02/23 10:24:51;;;;;;;4.60;0.90;;;;;;;;;;4972111;28;20026;-80
2024/02/23 10:27:16;;;;;;;3.60;0.77;;;;;;;;;;4988513;28;20034;-80
2024/02/23 10:29:42;;;;;;;2.95;0.77;;;;;;;;;;4986966;28;20038;-79
2024/02/23 10:32:13;;;;;;;5.57;0.90;;;;;;;;;;4982542;28;20045;-80
2024/02/23 10:34:42;;;;;;;4.80;0.90;;;;;;;;;;4989447;28;20057;-79
2024/02/23 10:37:07;;;;;;;3.92;1.00;;;;;;;;;;4986442;28;20113;-79
2024/02/23 10:39:37;;;;;;;2.05;0.73;;;;;;;;;;4991835;28;20173;-79
2024/02/23 10:42:03;;;;;;;2.10;0.93;;;;;;;;;;4977163;28;20027;-80
2024/02/23 10:44:30;;;;;;;3.47;0.95;;;;;;;;;;4981727;28;20084;-80
2024/02/23 10:46:57;;;;;;;4.05;1.08;;;;;;;;;;4987413;28;20073;-80
2024/02/23 10:49:26;;;;;;;5.18;1.17;;;;;;;;;;4974973;28;20496;-79
2024/02/23 10:51:52;;;;;;;5.88;1.30;;;;;;;;;;4990277;28;20037;-79
2024/02/23 10:54:19;;;;;;;4.80;1.00;;;;;;;;;;4984726;28;20038;-80
2024/02/23 10:56:47;;;;;;;2.40;0.65;;;;;;;;;;4987831;28;20025;-80
2024/02/23 10:59:13;;;;;;;5.22;1.00;;;;;;;;;;4987895;28;20123;-80
2024/02/23 11:01:39;;;;;;;7.75;2.58;;;;;;;;;;4985041;28;20102;-80
2024/02/23 11:04:07;;;;;;;3.42;1.20;;;;;;;;;;4989323;28;20161;-80
2024/02/23 11:06:34;;;;;;;4.55;0.98;;;;;;;;;;4989382;28;20504;-80
2024/02/23 11:09:13;;;;;;;2.67;0.88;;;;;;;;;;4967368;28;20499;-79
2024/02/23 11:11:38;;;;;;;3.60;0.95;;;;;;;;;;4987377;28;20023;-79
2024/02/23 11:14:08;;;;;;;3.28;1.10;;;;;;;;;;4987187;28;20030;-80
2024/02/23 11:16:39;;;;;;;2.83;0.90;;;;;;;;;;4992819;28;20026;-80
2024/02/23 11:19:08;;;;;;;3.17;0.93;;;;;;;;;;4975348;28;20033;-79
2024/02/23 11:21:35;;;;;;;2.65;0.90;;;;;;;;;;4976420;28;20038;-79
2024/02/23 11:24:03;;;;;;;5.38;1.33;;;;;;;;;;4991091;28;20026;-79
2024/02/23 11:26:29;;;;;;;3.67;1.20;;;;;;;;;;4973950;28;20084;-79
2024/02/23 11:28:54;;;;;;;3.28;0.98;;;;;;;;;;4977226;28;20034;-79
2024/02/23 11:31:25;;;;;;;3.60;0.90;;;;;;;;;;4991593;28;20523;-80
2024/02/23 11:33:56;;;;;;;4.35;1.50;;;;;;;;;;4990528;28;20085;-79
2024/02/23 11:36:23;;;;;;;3.25;0.93;;;;;;;;;;4971313;28;20117;-79
2024/02/23 11:38:54;;;;;;;7.40;1.70;;;;;;;;;;4992116;28;20030;-79
2024/02/23 11:41:22;;;;;;;3.80;1.10;;;;;;;;;;4995910;28;20085;-79
2024/02/23 11:43:47;;;;;;;4.95;1.38;;;;;;;;;;4994522;28;20034;-79
2024/02/23 11:46:15;;;;;;;4.22;1.15;;;;;;;;;;4984381;28;20020;-79
2024/02/23 11:48:41;;;;;;;3.78;1.40;;;;;;;;;;4974115;28;20993;-80
2024/02/23 11:51:07;;;;;;;6.80;1.60;;;;;;;;;;4992995;28;20488;-79
2024/02/23 11:53:33;;;;;;;3.55;1.20;;;;;;;;;;4977321;28;20485;-79
2024/02/23 11:55:58;;;;;;;6.10;1.50;;;;;;;;;;4970567;28;20041;-79
2024/02/23 11:58:24;;;;;;;4.78;1.20;;;;;;;;;;4979865;28;20057;-79
2024/02/23 12:00:51;;;;;;;5.72;1.20;;;;;;;;;;4991740;28;20165;-80
2024/02/23 12:03:17;;;;;;;5.13;1.13;;;;;;;;;;4991879;28;20121;-80
2024/02/23 12:05:42;;;;;;;3.70;1.13;;;;;;;;;;4993005;28;20476;-80
2024/02/23 12:08:08;;;;;;;6.70;2.03;;;;;;;;;;4967811;28;20038;-79
2024/02/23 12:10:34;;;;;;;4.97;1.30;;;;;;;;;;4980929;28;20019;-80
2024/02/23 12:13:00;;;;;;;4.13;1.30;;;;;;;;;;4963510;28;20030;-80
2024/02/23 12:15:25;;;;;;;2.38;1.02;;;;;;;;;;4981655;28;20031;-79
2024/02/23 12:17:50;;;;;;;2.63;1.15;;;;;;;;;;4981496;28;20038;-79
2024/02/23 12:20:16;;;;;;;4.88;1.15;;;;;;;;;;4979900;28;20058;-80
2024/02/23 12:22:42;;;;;;;4.03;1.00;;;;;;;;;;4962770;28;20057;-80
2024/02/23 12:25:07;;;;;;;3.65;1.20;;;;;;;;;;4980759;28;20104;-79
2024/02/23 12:27:33;;;;;;;3.65;1.15;;;;;;;;;;4977944;28;20145;-79
2024/02/23 12:29:59;;;;;;;3.78;1.17;;;;;;;;;;4980277;28;20040;-80
2024/02/23 12:32:25;;;;;;;4.03;0.90;;;;;;;;;;4983109;28;20034;-80
2024/02/23 12:34:51;;;;;;;4.60;1.30;;;;;;;;;;4975465;28;20034;-80
2024/02/23 12:37:22;;;;;;;2.70;1.10;;;;;;;;;;4985636;28;20034;-79
2024/02/23 12:39:48;;;;;;;7.28;1.30;;;;;;;;;;4989921;28;20395;-79
2024/02/23 12:42:13;;;;;;;3.90;1.02;;;;;;;;;;4991306;28;20030;-79
2024/02/23 12:44:38;;;;;;;3.30;1.10;;;;;;;;;;4971753;28;20030;-80
2024/02/23 12:47:04;;;;;;;8.68;1.50;;;;;;;;;;4992343;28;20515;-80
2024/02/23 12:49:29;;;;;;;4.30;0.98;;;;;;;;;;4989476;28;20543;-80
2024/02/23 12:51:56;;;;;;;2.75;0.90;;;;;;;;;;4976964;28;20038;-80
2024/02/23 12:54:21;;;;;;;4.32;1.20;;;;;;;;;;4990220;28;20076;-80
2024/02/23 12:56:46;;;;;;;4.30;1.05;;;;;;;;;;4987361;28;20472;-81
2024/02/23 12:59:12;;;;;;;3.15;0.88;;;;;;;;;;4987885;28;20022;-80
2024/02/23 13:01:38;;;;;;;5.72;1.10;;;;;;;;;;4976269;28;20436;-81
2024/02/23 13:04:09;;;;;;;4.07;0.90;;;;;;;;;;4985290;28;20499;-79
2024/02/23 13:06:39;;;;;;;2.08;0.85;;;;;;;;;;4988138;28;20038;-80
2024/02/23 13:09:06;;;;;;;4.70;1.40;;;;;;;;;;4991156;28;20015;-81
2024/02/23 13:11:32;;;;;;;4.38;1.13;;;;;;;;;;4988195;28;20118;-80
2024/02/23 13:13:57;;;;;;;3.40;1.10;;;;;;;;;;4985298;28;20026;-80
2024/02/23 13:16:22;;;;;;;4.30;1.10;;;;;;;;;;4980016;28;20035;-81
2024/02/23 13:18:48;;;;;;;5.78;0.98;;;;;;;;;;4977650;28;20029;-80
2024/02/23 13:21:14;;;;;;;3.63;1.00;;;;;;;;;;4995038;28;20383;-80
2024/02/23 13:23:41;;;;;;;5.25;1.13;;;;;;;;;;4994251;28;20035;-80
2024/02/23 13:26:07;;;;;;;5.10;1.27;;;;;;;;;;4992780;28;20022;-82
2024/02/23 13:28:32;;;;;;;6.18;1.27;;;;;;;;;;4988221;28;20037;-81
2024/02/23 13:30:58;;;;;;;2.92;1.05;;;;;;;;;;4991333;28;20033;-80
2024/02/23 13:33:23;;;;;;;8.20;1.30;;;;;;;;;;4982573;28;20446;-81
2024/02/23 13:35:49;;;;;;;5.90;1.20;;;;;;;;;;4994750;28;20026;-80
2024/02/23 13:38:14;;;;;;;4.43;1.40;;;;;;;;;;4990955;28;20038;-80
2024/02/23 13:40:40;;;;;;;4.03;1.38;;;;;;;;;;4994728;28;20080;-80
2024/02/23 13:43:05;;;;;;;4.18;1.25;;;;;;;;;;4983883;28;20040;-80
2024/02/23 13:45:31;;;;;;;3.22;1.35;;;;;;;;;;4981117;28;20485;-80
2024/02/23 13:48:01;;;;;;;4.32;1.00;;;;;;;;;;4976319;28;20054;-80
2024/02/23 13:50:27;;;;;;;3.60;0.90;;;;;;;;;;4976393;28;20022;-80
2024/02/23 13:52:52;;;;;;;4.03;1.30;;;;;;;;;;4988668;28;20042;-81
2024/02/23 13:55:20;;;;;;;2.75;1.13;;;;;;;;;;4986241;28;20031;-81
2024/02/23 13:57:46;;;;;;;3.63;1.10;;;;;;;;;;4968072;28;20503;-81
2024/02/23 14:00:12;;;;;;;3.25;1.08;;;;;;;;;;4971737;28;20373;-80
2024/02/23 14:02:40;;;;;;;5.20;1.25;;;;;;;;;;4995117;28;20034;-80
2024/02/23 14:05:09;;;;;;;2.33;0.85;;;;;;;;;;4985804;28;20031;-81
2024/02/23 14:07:34;;;;;;;2.83;0.80;;;;;;;;;;4973653;28;20080;-81
2024/02/23 14:10:00;;;;;;;3.50;1.08;;;;;;;;;;4963097;28;20038;-81
2024/02/23 14:12:26;;;;;;;3.03;1.10;;;;;;;;;;4989744;28;20029;-81
2024/02/23 14:14:51;;;;;;;2.45;0.88;;;;;;;;;;4974128;28;20081;-81
2024/02/23 14:17:16;;;;;;;2.70;1.10;;;;;;;;;;4982604;28;20102;-81
2024/02/23 14:19:42;;;;;;;5.22;1.48;;;;;;;;;;4969125;28;20034;-81
2024/02/23 14:22:07;;;;;;;5.72;1.30;;;;;;;;;;4983658;28;20110;-81
2024/02/23 14:24:33;;;;;;;3.90;1.20;;;;;;;;;;4975088;28;20531;-81
2024/02/23 14:26:58;;;;;;;6.07;1.42;;;;;;;;;;4970235;28;20444;-81
2024/02/23 14:29:23;;;;;;;3.38;1.48;;;;;;;;;;4970176;28;20029;-81
2024/02/23 14:31:49;;;;;;;5.70;1.45;;;;;;;;;;4975725;28;20610;-81
2024/02/23 14:34:14;;;;;;;3.58;1.55;;;;;;;;;;4992963;28;20049;-81
2024/02/23 14:36:40;;;;;;;5.30;1.50;;;;;;;;;;4980740;28;20058;-81
2024/02/23 14:39:05;;;;;;;5.30;1.40;;;;;;;;;;4992568;28;20030;-81
2024/02/23 14:41:31;;;;;;;4.72;1.40;;;;;;;;;;4969861;28;20423;-81
2024/02/23 14:43:56;;;;;;;3.97;1.48;;;;;;;;;;4987388;28;20642;-81
2024/02/23 14:46:22;;;;;;;2.65;1.15;;;;;;;;;;4989097;28;20033;-81
2024/02/23 14:48:48;;;;;;;2.78;1.20;;;;;;;;;;4989863;28;20499;-81
2024/02/23 14:51:17;;;;;;;3.65;1.30;;;;;;;;;;4972323;28;20037;-81
2024/02/23 14:53:42;;;;;;;5.75;1.50;;;;;;;;;;4986260;28;20062;-81
2024/02/23 14:56:08;;;;;;;3.33;1.30;;;;;;;;;;4989525;28;20058;-81
2024/02/23 14:58:34;;;;;;;4.10;1.23;;;;;;;;;;4990610;28;20026;-81
2024/02/23 15:00:59;;;;;;;3.75;1.58;;;;;;;;;;4987804;28;20027;-81
2024/02/23 15:03:25;;;;;;;5.90;2.47;;;;;;;;;;4980465;28;20117;-81
2024/02/23 15:05:51;;;;;;;5.13;2.30;;;;;;;;;;4993755;28;20018;-80
2024/02/23 15:08:16;;;;;;;5.38;1.75;;;;;;;;;;4982547;28;20105;-81
2024/02/23 15:10:42;;;;;;;4.63;1.40;;;;;;;;;;4989393;28;20472;-81
2024/02/23 15:13:08;;;;;;;5.68;1.75;;;;;;;;;;4984921;28;20038;-80
2024/02/23 15:15:35;;;;;;;2.63;1.25;;;;;;;;;;4986585;28;20463;-81
2024/02/23 15:18:01;;;;;;;8.02;1.40;;;;;;;;;;4989293;28;20058;-81
2024/02/23 15:20:26;;;;;;;3.97;1.60;;;;;;;;;;4974548;28;20030;-81
2024/02/23 15:22:52;;;;;;;3.75;1.60;;;;;;;;;;4987822;28;20018;-81
2024/02/23 15:25:18;;;;;;;4.55;1.73;;;;;;;;;;4973301;28;20027;-81
2024/02/23 15:27:43;;;;;;;4.30;2.00;;;;;;;;;;4977665;28;20022;-81